Time;durP1;ratioP1;P1;durP2;ratioP2;P2;SDS_P1;SDS_P2;PMS_P1;PMS_P2;Temp;Humidity;BMP_temperature;BMP_pressure;BME280_temperature;BME280_humidity;BME280_pressure;Samples;Min_cycle;Max_cycle;Signal;HPM_P1;HPM_P2
2023/03/20 00:09:53;;;;;;;643.88;585.75;;;;;;;22.30;48.76;100361.44;20515945;28;20498;-72
2023/03/20 00:19:54;;;;;;;615.42;559.25;;;;;;;22.28;48.65;100360.72;20514162;28;20105;-71
2023/03/20 00:29:55;;;;;;;613.92;557.95;;;;;;;22.29;48.82;100351.84;20520670;28;20043;-71
2023/03/20 00:39:55;;;;;;;614.22;558.25;;;;;;;22.27;48.83;100355.56;20512040;28;20053;-71
2023/03/20 00:49:56;;;;;;;596.33;541.65;;;;;;;22.24;48.75;100354.03;20503038;28;20104;-71
2023/03/20 01:00:03;;;;;;;580.97;527.35;;;;;;;22.23;48.66;100352.34;20514786;28;20043;-71
2023/03/20 01:10:05;;;;;;;571.78;518.83;;;;;;;22.22;49.11;100355.94;20508733;28;20039;-72
2023/03/20 01:20:14;;;;;;;565.30;512.80;;;;;;;22.19;49.07;100356.19;20515996;28;20042;-72
2023/03/20 01:30:34;;;;;;;564.42;511.92;;;;;;;22.20;48.24;100349.94;20514739;28;20558;-72
2023/03/20 01:40:43;;;;;;;561.50;509.40;;;;;;;22.15;48.63;100333.66;20523170;28;20051;-72
2023/03/20 01:50:45;;;;;;;553.33;501.63;;;;;;;22.13;48.85;100332.94;20544200;28;20051;-72
2023/03/20 02:00:52;;;;;;;575.53;522.42;;;;;;;22.12;48.74;100323.34;20539108;28;20105;-72
2023/03/20 02:10:53;;;;;;;565.10;512.67;;;;;;;22.10;48.79;100334.03;20534346;28;20061;-70
2023/03/20 02:21:09;;;;;;;565.72;513.33;;;;;;;22.10;48.36;100320.84;20542490;28;20197;-72
2023/03/20 02:31:31;;;;;;;519.95;470.55;;;;;;;22.08;48.69;100314.88;20533019;28;20043;-72
2023/03/20 02:41:53;;;;;;;521.97;472.67;;;;;;;22.07;48.38;100311.41;20541057;28;20050;-72
2023/03/20 02:52:38;;;;;;;540.60;489.90;;;;;;;22.08;48.47;100301.69;20532063;28;20039;-71
2023/03/20 03:02:57;;;;;;;530.45;480.48;;;;;;;22.01;48.51;100293.44;20512400;28;20146;-72
2023/03/20 03:13:01;;;;;;;535.63;485.42;;;;;;;22.01;48.65;100303.19;20528424;28;20046;-71
2023/03/20 03:23:02;;;;;;;667.88;608.40;;;;;;;21.99;48.46;100307.72;20519251;28;20138;-70
2023/03/20 03:33:07;;;;;;;466.13;420.88;;;;;;;21.99;48.55;100319.09;20523864;28;20043;-72
2023/03/20 03:43:23;;;;;;;489.88;442.90;;;;;;;21.97;48.41;100315.78;20515858;28;20035;-71
2023/03/20 03:53:29;;;;;;;515.15;466.45;;;;;;;21.96;48.26;100318.50;20514645;28;20047;-72
2023/03/20 04:03:36;;;;;;;535.97;485.85;;;;;;;21.95;48.12;100330.00;20517855;28;20042;-70
2023/03/20 04:13:37;;;;;;;496.30;448.95;;;;;;;21.91;48.35;100332.91;20518922;28;20066;-72
2023/03/20 04:23:37;;;;;;;514.03;465.45;;;;;;;21.93;48.23;100330.16;20519170;28;20126;-70
2023/03/20 04:33:38;;;;;;;529.28;479.65;;;;;;;21.90;48.31;100333.06;20522077;28;20041;-70
2023/03/20 04:43:39;;;;;;;517.08;468.35;;;;;;;21.89;48.10;100347.19;20510421;28;20051;-68
2023/03/20 04:53:39;;;;;;;528.60;479.00;;;;;;;21.95;48.50;100340.56;20500338;28;20047;-73
2023/03/20 05:03:40;;;;;;;535.55;485.40;;;;;;;21.91;48.06;100351.38;20495778;28;20399;-68
2023/03/20 05:13:40;;;;;;;544.10;493.33;;;;;;;21.99;49.23;100357.81;20503089;28;20046;-72
2023/03/20 05:23:41;;;;;;;534.53;483.95;;;;;;;22.05;50.12;100363.41;20507228;28;20066;-73
2023/03/20 05:33:42;;;;;;;556.47;504.10;;;;;;;22.09;50.36;100369.28;20499715;28;20046;-73
2023/03/20 05:43:42;;;;;;;568.30;515.25;;;;;;;22.13;49.94;100375.16;20506850;28;20059;-70
2023/03/20 05:53:42;;;;;;;346.65;313.00;;;;;;;21.69;40.30;100372.50;20504907;28;20129;-68
2023/03/20 06:03:45;;;;;;;334.60;301.63;;;;;;;21.90;43.81;100375.22;20490331;28;20043;-73
2023/03/20 06:13:53;;;;;;;328.15;294.92;;;;;;;21.77;44.01;100395.63;20502097;28;20050;-73
2023/03/20 06:23:53;;;;;;;347.67;313.98;;;;;;;21.79;42.87;100402.44;20525811;28;20565;-73
2023/03/20 06:33:54;;;;;;;321.23;288.77;;;;;;;21.89;45.63;100395.47;20528985;28;20074;-76
2023/03/20 06:43:55;;;;;;;331.15;296.30;;;;;;;21.94;46.14;100395.09;20546396;28;20110;-77
2023/03/20 06:53:57;;;;;;;341.27;304.42;;;;;;;21.94;45.46;100410.09;20526119;28;20046;-78
2023/03/20 07:03:58;;;;;;;375.13;320.97;;;;;;;22.01;46.07;100413.91;20524160;28;20137;-79
2023/03/20 07:14:00;;;;;;;383.65;319.20;;;;;;;22.04;46.78;100411.84;20522502;28;20046;-79
2023/03/20 07:24:00;;;;;;;480.03;429.43;;;;;;;22.09;46.87;100414.09;20533244;28;20142;-79
2023/03/20 07:34:01;;;;;;;446.60;397.98;;;;;;;22.13;46.71;100417.34;20554441;28;20088;-77
2023/03/20 07:44:01;;;;;;;466.77;417.95;;;;;;;22.15;46.65;100408.34;20534994;28;20045;-78
2023/03/20 07:54:02;;;;;;;476.60;427.30;;;;;;;22.19;46.78;100411.56;20511131;28;20047;-77
2023/03/20 08:04:02;;;;;;;519.47;466.45;;;;;;;22.21;47.15;100420.19;20522607;28;20038;-77
2023/03/20 08:14:04;;;;;;;541.35;487.10;;;;;;;22.23;46.81;100419.09;20520211;28;20142;-77
2023/03/20 08:24:05;;;;;;;578.00;520.58;;;;;;;22.26;46.89;100420.66;20541026;28;20153;-76
2023/03/20 08:34:06;;;;;;;628.05;566.90;;;;;;;22.30;46.98;100422.09;20546085;28;20039;-77
2023/03/20 08:44:07;;;;;;;971.97;887.05;;;;;;;22.33;46.90;100427.09;20547818;28;20414;-79
2023/03/20 08:54:07;;;;;;;458.50;409.05;;;;;;;22.38;46.67;100438.16;20541634;28;20077;-77
2023/03/20 09:04:08;;;;;;;481.70;431.27;;;;;;;22.42;47.00;100432.63;20538552;28;20047;-79
2023/03/20 09:14:08;;;;;;;498.55;447.20;;;;;;;22.43;47.01;100442.22;20553496;28;20046;-77
2023/03/20 09:24:10;;;;;;;492.33;441.33;;;;;;;22.44;47.27;100444.72;20534202;28;20538;-77
2023/03/20 09:34:12;;;;;;;559.87;504.07;;;;;;;22.48;47.16;100438.22;20532396;28;20545;-77
2023/03/20 09:44:50;;;;;;;663.70;600.47;;;;;;;22.53;47.20;100424.66;20552939;28;21303;-78
2023/03/20 09:54:56;;;;;;;795.78;723.55;;;;;;;22.58;47.20;100432.19;20532674;28;20043;-78
2023/03/20 10:04:57;;;;;;;549.33;494.05;;;;;;;22.60;46.95;100427.63;20550605;28;20050;-77
2023/03/20 10:15:12;;;;;;;513.60;460.75;;;;;;;22.63;47.14;100428.22;20556542;28;20615;-78
2023/03/20 10:25:33;;;;;;;528.15;474.52;;;;;;;22.65;46.83;100422.81;20565550;28;20058;-77
2023/03/20 10:35:41;;;;;;;566.90;511.17;;;;;;;22.69;47.02;100419.78;20570310;28;20502;-78
2023/03/20 10:45:56;;;;;;;430.73;383.80;;;;;;;22.75;46.65;100414.97;20559390;28;20062;-78
2023/03/20 10:56:01;;;;;;;433.25;386.48;;;;;;;22.75;46.67;100407.03;20536840;28;23733;-78
2023/03/20 11:06:16;;;;;;;441.50;394.48;;;;;;;22.76;47.02;100398.16;20557897;28;20030;-78
2023/03/20 11:16:31;;;;;;;412.88;367.98;;;;;;;22.81;47.22;100385.41;20560245;28;20106;-77
2023/03/20 11:26:37;;;;;;;396.35;353.02;;;;;;;22.84;47.00;100374.59;20536693;28;20039;-77
2023/03/20 11:36:40;;;;;;;396.65;353.55;;;;;;;22.83;46.71;100363.19;20525596;28;20186;-77
2023/03/20 11:46:40;;;;;;;361.80;325.25;;;;;;;22.45;36.78;100353.22;20509646;28;20038;-79
2023/03/20 11:56:52;;;;;;;1172.82;999.90;;;;;;;22.04;34.16;100351.19;20512675;28;20491;-75
2023/03/20 12:07:16;;;;;;;;;;;;;;;22.39;37.64;100341.38;20513068;28;20039;-79
2023/03/20 12:17:26;;;;;;;1178.18;999.90;;;;;;;22.55;40.31;100336.47;20510006;28;19927;-78
2023/03/20 12:27:38;;;;;;;1181.65;999.90;;;;;;;22.66;42.02;100327.66;20538669;28;20376;-79
2023/03/20 12:37:39;;;;;;;1152.78;999.90;;;;;;;22.71;42.31;100329.91;20527974;28;20047;-78
2023/03/20 12:48:01;;;;;;;661.50;601.22;;;;;;;22.76;43.14;100327.72;20529542;28;20046;-80
2023/03/20 12:58:21;;;;;;;673.47;612.27;;;;;;;22.76;43.94;100314.50;20536799;28;20077;-78
2023/03/20 13:08:32;;;;;;;720.80;656.10;;;;;;;22.79;44.52;100300.22;20540216;28;20316;-78
2023/03/20 13:18:51;;;;;;;765.63;697.58;;;;;;;22.82;44.51;100290.22;20530204;28;20135;-79
2023/03/20 13:28:57;;;;;;;820.28;748.45;;;;;;;22.86;44.84;100290.81;20544059;28;20067;-79
2023/03/20 13:39:09;;;;;;;1015.90;930.95;;;;;;;22.92;45.30;100282.34;20517025;28;20061;-78
2023/03/20 13:49:42;;;;;;;758.53;691.13;;;;;;;23.00;45.02;100273.78;20538005;28;20041;-76
2023/03/20 13:59:53;;;;;;;768.85;700.60;;;;;;;23.01;45.05;100272.81;20546843;28;20117;-81
2023/03/20 14:09:54;;;;;;;918.38;839.50;;;;;;;23.00;45.33;100271.13;20535422;28;20137;-79
2023/03/20 14:19:56;;;;;;;702.17;638.73;;;;;;;22.98;45.31;100268.59;20548708;28;20181;-77
2023/03/20 14:30:28;;;;;;;711.03;647.13;;;;;;;22.97;45.42;100264.31;20526093;28;20039;-77
2023/03/20 14:40:37;;;;;;;700.00;636.97;;;;;;;22.94;45.56;100261.13;20533775;28;20173;-73
2023/03/20 14:50:50;;;;;;;672.78;611.75;;;;;;;22.93;45.35;100257.63;20516021;28;20082;-78
2023/03/20 15:00:50;;;;;;;662.95;602.42;;;;;;;23.03;45.73;100253.22;20545102;28;20057;-79
2023/03/20 15:11:03;;;;;;;685.47;623.30;;;;;;;23.09;45.24;100246.56;20535100;28;20047;-75
2023/03/20 15:21:12;;;;;;;725.38;660.03;;;;;;;23.10;45.66;100244.75;20522645;28;20296;-72
2023/03/20 15:31:31;;;;;;;757.38;689.80;;;;;;;23.05;44.45;100250.44;20517377;28;20047;-75
2023/03/20 15:41:34;;;;;;;803.38;732.97;;;;;;;22.64;35.64;100241.66;20537490;28;20122;-71
2023/03/20 15:51:35;;;;;;;1108.93;999.90;;;;;;;22.47;33.04;100245.75;20527787;28;20414;-73
2023/03/20 16:01:35;;;;;;;1145.32;999.90;;;;;;;22.61;32.04;100236.66;20512261;28;20062;-69
2023/03/20 16:11:38;;;;;;;1071.53;983.97;;;;;;;22.78;34.03;100237.84;20526725;28;20134;-69
2023/03/20 16:21:43;;;;;;;1072.28;985.10;;;;;;;22.79;37.07;100260.63;20526667;28;20062;-74
2023/03/20 16:31:54;;;;;;;1196.18;999.90;;;;;;;22.78;39.29;100257.16;20539289;28;20641;-73
2023/03/20 16:42:10;;;;;;;1191.40;999.90;;;;;;;22.71;40.31;100274.47;20523047;28;20102;-72
2023/03/20 16:52:13;;;;;;;1133.45;999.90;;;;;;;22.69;41.47;100271.13;20529929;28;20039;-72
2023/03/20 17:02:21;;;;;;;860.15;785.50;;;;;;;22.59;41.12;100280.81;20504225;28;21994;-73
2023/03/20 17:12:23;;;;;;;849.22;775.38;;;;;;;22.59;41.52;100286.91;20526375;28;20492;-73
2023/03/20 17:22:27;;;;;;;675.17;614.22;;;;;;;22.25;38.13;100286.28;20494866;28;20057;-73
2023/03/20 17:32:28;;;;;;;805.58;735.08;;;;;;;22.45;40.77;100293.38;20500432;28;20074;-74
2023/03/20 17:42:30;;;;;;;1184.78;999.90;;;;;;;22.50;42.25;100295.63;20521836;28;20050;-73
2023/03/20 17:52:31;;;;;;;845.33;772.73;;;;;;;22.51;43.16;100299.94;20496523;28;20043;-73
2023/03/20 18:02:32;;;;;;;1166.13;999.90;;;;;;;22.48;43.26;100305.47;20523926;28;20091;-74
2023/03/20 18:12:33;;;;;;;792.15;723.63;;;;;;;22.49;44.10;100307.97;20528051;28;20170;-73
2023/03/20 18:22:34;;;;;;;786.35;718.03;;;;;;;22.50;44.61;100314.94;20507074;28;20054;-73
2023/03/20 18:32:35;;;;;;;797.75;728.35;;;;;;;22.49;45.30;100315.06;20561314;28;20057;-75
2023/03/20 18:42:35;;;;;;;1126.90;999.90;;;;;;;22.48;45.68;100316.84;20558937;28;20063;-73
2023/03/20 18:52:36;;;;;;;638.13;578.85;;;;;;;22.48;46.06;100322.13;20553551;28;20046;-74
2023/03/20 19:02:38;;;;;;;543.70;491.65;;;;;;;22.47;46.20;100322.25;20554079;28;20506;-73
2023/03/20 19:12:39;;;;;;;474.73;427.83;;;;;;;22.49;46.15;100330.91;20531515;28;20043;-74
2023/03/20 19:22:41;;;;;;;604.67;548.83;;;;;;;22.46;46.82;100323.22;20545803;28;20055;-74
2023/03/20 19:32:42;;;;;;;617.10;560.37;;;;;;;22.46;46.84;100320.59;20523547;28;20157;-74
2023/03/20 19:42:44;;;;;;;665.50;605.28;;;;;;;22.55;48.33;100333.00;20517781;28;21175;-71
2023/03/20 19:52:45;;;;;;;569.70;515.57;;;;;;;22.64;50.54;100326.13;20484640;28;20043;-73
2023/03/20 20:02:46;;;;;;;498.17;449.73;;;;;;;22.67;52.25;100326.69;20502824;28;20282;-74
2023/03/20 20:12:48;;;;;;;411.90;370.50;;;;;;;22.64;52.03;100329.63;20533409;28;20153;-70
2023/03/20 20:22:49;;;;;;;433.25;389.63;;;;;;;22.62;51.56;100326.25;20542740;28;20049;-71
2023/03/20 20:32:52;;;;;;;419.23;377.17;;;;;;;22.59;50.93;100326.50;20519705;28;20043;-71
2023/03/20 20:42:56;;;;;;;392.27;350.88;;;;;;;22.61;51.35;100314.03;20518824;28;20050;-72
2023/03/20 20:52:59;;;;;;;412.75;371.60;;;;;;;22.59;51.33;100310.66;20513632;28;20043;-69
2023/03/20 21:03:00;;;;;;;429.95;387.00;;;;;;;22.58;51.32;100310.81;20520799;28;20048;-72
2023/03/20 21:13:00;;;;;;;436.15;392.58;;;;;;;22.52;51.49;100312.16;20526280;28;20094;-72
2023/03/20 21:23:01;;;;;;;412.85;372.17;;;;;;;22.53;51.17;100303.28;20518001;28;20077;-71
2023/03/20 21:33:02;;;;;;;429.83;387.13;;;;;;;22.50;51.11;100301.72;20513446;28;20055;-73
2023/03/20 21:43:03;;;;;;;405.75;365.50;;;;;;;22.48;50.99;100313.38;20503023;28;20054;-72
2023/03/20 21:53:03;;;;;;;412.63;372.03;;;;;;;22.45;50.88;100322.41;20507437;28;20050;-73
2023/03/20 22:03:04;;;;;;;425.63;383.23;;;;;;;22.46;50.35;100328.50;20523254;28;20066;-73
2023/03/20 22:13:05;;;;;;;435.05;392.15;;;;;;;22.41;50.63;100323.63;20531020;28;20079;-73
2023/03/20 22:23:06;;;;;;;418.48;376.95;;;;;;;22.38;50.26;100319.41;20523351;28;20043;-73
2023/03/20 22:33:07;;;;;;;434.17;391.17;;;;;;;22.44;50.86;100312.81;20518259;28;20479;-71
2023/03/20 22:43:09;;;;;;;437.63;394.45;;;;;;;22.45;51.09;100313.63;20537981;28;20062;-71
2023/03/20 22:53:10;;;;;;;377.00;340.05;;;;;;;22.45;50.72;100321.53;20537765;28;20046;-71
2023/03/20 23:03:10;;;;;;;389.52;351.50;;;;;;;22.45;50.78;100321.53;20515492;28;20078;-72
2023/03/20 23:13:12;;;;;;;409.08;368.73;;;;;;;22.45;50.75;100324.19;20526063;28;20046;-71
2023/03/20 23:23:12;;;;;;;379.30;342.07;;;;;;;22.44;50.58;100333.09;20527974;28;20146;-70
2023/03/20 23:33:13;;;;;;;377.33;340.80;;;;;;;22.41;50.59;100318.34;20532044;28;20051;-71
2023/03/20 23:43:14;;;;;;;379.00;341.80;;;;;;;22.44;50.68;100326.00;20537496;28;20043;-72
2023/03/20 23:53:15;;;;;;;407.02;367.08;;;;;;;22.41;50.82;100320.13;20526097;28;20112;-72
